PWSweather.com
Personal Weather Stations
Station Observations
PENICUIKWS
PenicuikGB

PenicuikGB

Lat: 55.830932, Lon: -3.224533000000065

Elevation: 166

Station Type: Fine Offset

http://weather.penicuik.org

High Low Average
Temperature 63.7°F17.6°F 43.9°F6.6°F 54.1°F12.3°F
Dew Point 52.9°F11.6°F 43.4°F6.3°F 49.1°F9.5°F
Winds 3.2 mph -5.1 mph - Calm Calm 1.1 mph 1.8 mph
Wind Gusts 5.4 mph8.7 mph -- 2.3 mph3.7 mph
Humidity 99% 60% 85%
Pressure 30.78 in1042.30 in 30.29 in1025.70 in -
Precipitation 0.04 in1.00 in - -
Hour Temp Dew Point Humidity Winds Wind Gusts Pressure Precip Precip Rate Daily Precip Total
12:00 AM 50.4°F10.2°C 50.1°F10.1°C 99% Calm Calm -- 30.65 in1037.9 mb 0.00 in0.0 mm 0.00 in0.0 mm 0.00 in0.0 mm
12:15 AM 50.4°F10.2°C 50.1°F10.1°C 99% Calm Calm -- 30.66 in1038.3 mb 0.00 in0.0 mm 0.00 in0.0 mm 0.00 in0.0 mm
12:30 AM 50.4°F10.2°C 50.1°F10.1°C 99% Calm Calm -- 30.65 in1037.9 mb 0.00 in0.0 mm 0.00 in0.0 mm 0.00 in0.0 mm
12:45 AM 50.4°F10.2°C 50.1°F10.1°C 99% Calm Calm -- 30.65 in1037.9 mb 0.00 in0.0 mm 0.00 in0.0 mm 0.00 in0.0 mm
01:00 AM 50.2°F10.1°C 49.9°F9.9°C 99% Calm Calm -- 30.65 in1037.9 mb 0.00 in0.0 mm 0.00 in0.0 mm 0.00 in0.0 mm
01:15 AM 50.0°F10.0°C 49.7°F9.8°C 99% Calm Calm -- 30.65 in1037.9 mb 0.00 in0.0 mm 0.00 in0.0 mm 0.00 in0.0 mm
01:30 AM 50.0°F10.0°C 49.7°F9.8°C 99% Calm Calm -- 30.66 in1038.3 mb 0.00 in0.0 mm 0.00 in0.0 mm 0.00 in0.0 mm
01:45 AM 49.5°F9.7°C 49.2°F9.6°C 99% Calm Calm -- 30.65 in1037.9 mb 0.00 in0.0 mm 0.00 in0.0 mm 0.00 in0.0 mm
02:00 AM 49.5°F9.7°C 49.2°F9.6°C 99% 0.2 mph S0.3 kmh S 1.6 mph2.6 kmh 30.66 in1038.3 mb 0.00 in0.0 mm 0.00 in0.0 mm 0.00 in0.0 mm
02:15 AM 48.7°F9.3°C 48.5°F9.2°C 99% Calm Calm -- 30.66 in1038.3 mb 0.00 in0.0 mm 0.00 in0.0 mm 0.00 in0.0 mm
02:30 AM 46.6°F8.1°C 46.3°F7.9°C 99% Calm Calm -- 30.66 in1038.3 mb 0.00 in0.0 mm 0.00 in0.0 mm 0.00 in0.0 mm
02:45 AM 46.0°F7.8°C 45.2°F7.3°C 97% Calm Calm -- 30.66 in1038.3 mb 0.00 in0.0 mm 0.00 in0.0 mm 0.00 in0.0 mm
03:00 AM 45.5°F7.5°C 44.7°F7.1°C 97% 0.4 mph SW0.6 kmh SW 1.6 mph2.6 kmh 30.65 in1037.9 mb 0.00 in0.0 mm 0.00 in0.0 mm 0.00 in0.0 mm
03:15 AM 45.1°F7.3°C 44.3°F6.8°C 97% 0.3 mph S0.5 kmh S 1.6 mph2.6 kmh 30.66 in1038.3 mb 0.00 in0.0 mm 0.00 in0.0 mm 0.00 in0.0 mm
03:30 AM 44.6°F7.0°C 43.8°F6.6°C 97% 0.1 mph WSW0.2 kmh WSW 0.7 mph1.1 kmh 30.66 in1038.3 mb 0.00 in0.0 mm 0.00 in0.0 mm 0.00 in0.0 mm
03:45 AM 44.1°F6.7°C 43.5°F6.4°C 98% Calm Calm -- 30.66 in1038.3 mb 0.00 in0.0 mm 0.00 in0.0 mm 0.00 in0.0 mm
04:00 AM 43.9°F6.6°C 43.4°F6.3°C 98% 0.5 mph S0.8 kmh S 1.6 mph2.6 kmh 30.66 in1038.3 mb 0.01 in0.3 mm 0.01 in0.3 mm 0.01 in0.3 mm
04:15 AM 43.9°F6.6°C 43.4°F6.3°C 98% 0.6 mph S1.0 kmh S 1.6 mph2.6 kmh 30.66 in1038.3 mb 0.01 in0.3 mm 0.00 in0.0 mm 0.01 in0.3 mm
04:30 AM 44.8°F7.1°C 44.0°F6.7°C 97% Calm Calm 0.7 mph1.1 kmh 30.67 in1038.6 mb 0.01 in0.3 mm 0.00 in0.0 mm 0.01 in0.3 mm
04:45 AM 45.9°F7.7°C 45.1°F7.3°C 97% 0.7 mph S1.1 kmh S 1.6 mph2.6 kmh 30.66 in1038.3 mb 0.01 in0.3 mm 0.00 in0.0 mm 0.01 in0.3 mm
05:00 AM 47.5°F8.6°C 47.2°F8.4°C 99% 0.2 mph S0.3 kmh S 1.6 mph2.6 kmh 30.67 in1038.6 mb 0.00 in0.0 mm 0.00 in0.0 mm 0.01 in0.3 mm
05:15 AM 49.1°F9.5°C 48.8°F9.3°C 99% 0.1 mph SSW0.2 kmh SSW 0.7 mph1.1 kmh 30.66 in1038.3 mb 0.00 in0.0 mm 0.00 in0.0 mm 0.01 in0.3 mm
05:30 AM 49.3°F9.6°C 49.0°F9.4°C 99% 1.5 mph N2.4 kmh N 3.8 mph6.1 kmh 30.66 in1038.3 mb 0.00 in0.0 mm 0.00 in0.0 mm 0.01 in0.3 mm
05:45 AM 50.0°F10.0°C 49.7°F9.8°C 99% 0.5 mph NNW0.8 kmh NNW 2.2 mph3.5 kmh 30.66 in1038.3 mb 0.00 in0.0 mm 0.00 in0.0 mm 0.01 in0.3 mm
06:00 AM 50.4°F10.2°C 50.1°F10.1°C 99% 0.5 mph WSW0.8 kmh WSW 3.1 mph5.0 kmh 30.66 in1038.3 mb 0.00 in0.0 mm 0.00 in0.0 mm 0.01 in0.3 mm
06:15 AM 51.1°F10.6°C 50.8°F10.4°C 99% 0.1 mph SSE0.2 kmh SSE 0.7 mph1.1 kmh 30.66 in1038.3 mb 0.00 in0.0 mm 0.00 in0.0 mm 0.01 in0.3 mm
06:30 AM 51.8°F11.0°C 51.3°F10.7°C 98% 1.0 mph S1.6 kmh S 1.6 mph2.6 kmh 30.67 in1038.6 mb 0.00 in0.0 mm 0.00 in0.0 mm 0.01 in0.3 mm
06:31 AM 51.8°F11.0°C 51.3°F10.7°C 98% 0.9 mph S1.4 kmh S 1.6 mph2.6 kmh 30.68 in1038.9 mb 0.00 in0.0 mm 0.00 in0.0 mm 0.01 in0.3 mm
06:45 AM 51.8°F11.0°C 51.3°F10.7°C 98% Calm Calm -- 30.29 in1025.7 mb 0.00 in0.0 mm 0.00 in0.0 mm 0.01 in0.3 mm
07:00 AM 52.3°F11.3°C 51.8°F11.0°C 98% 0.5 mph E0.8 kmh E 1.6 mph2.6 kmh 30.29 in1025.7 mb 0.00 in0.0 mm 0.00 in0.0 mm 0.01 in0.3 mm
07:15 AM 52.3°F11.3°C 51.8°F11.0°C 98% 1.5 mph SE2.4 kmh SE 3.8 mph6.1 kmh 30.30 in1026.1 mb 0.00 in0.0 mm 0.00 in0.0 mm 0.01 in0.3 mm
07:30 AM 53.1°F11.7°C 52.5°F11.4°C 98% 1.6 mph S2.6 kmh S 4.5 mph7.2 kmh 30.30 in1026.1 mb 0.00 in0.0 mm 0.00 in0.0 mm 0.01 in0.3 mm
07:45 AM 53.2°F11.8°C 52.7°F11.5°C 98% 2.6 mph S4.2 kmh S 4.5 mph7.2 kmh 30.30 in1026.1 mb 0.00 in0.0 mm 0.00 in0.0 mm 0.01 in0.3 mm
07:46 AM 53.2°F11.8°C 52.7°F11.5°C 98% 2.5 mph SSW4.0 kmh SSW 4.5 mph7.2 kmh 30.31 in1026.4 mb 0.00 in0.0 mm 0.00 in0.0 mm 0.01 in0.3 mm
08:00 AM 53.4°F11.9°C 52.6°F11.4°C 97% 2.2 mph WNW3.5 kmh WNW 3.1 mph5.0 kmh 30.30 in1026.1 mb 0.00 in0.0 mm 0.00 in0.0 mm 0.01 in0.3 mm
08:15 AM 53.6°F12.0°C 51.9°F11.1°C 94% 1.8 mph SW2.9 kmh SW 3.1 mph5.0 kmh 30.31 in1026.4 mb 0.00 in0.0 mm 0.00 in0.0 mm 0.01 in0.3 mm
08:30 AM 55.2°F12.9°C 52.9°F11.6°C 92% 2.6 mph SSW4.2 kmh SSW 5.4 mph8.7 kmh 30.31 in1026.4 mb 0.00 in0.0 mm 0.00 in0.0 mm 0.01 in0.3 mm
08:45 AM 56.1°F13.4°C 52.0°F11.1°C 86% 2.1 mph SW3.4 kmh SW 3.8 mph6.1 kmh 30.32 in1026.8 mb 0.00 in0.0 mm 0.00 in0.0 mm 0.01 in0.3 mm
09:00 AM 56.7°F13.7°C 51.6°F10.9°C 83% 1.9 mph SSW3.1 kmh SSW 3.8 mph6.1 kmh 30.32 in1026.8 mb 0.00 in0.0 mm 0.00 in0.0 mm 0.01 in0.3 mm
09:15 AM 57.0°F13.9°C 51.6°F10.9°C 82% 1.4 mph E2.3 kmh E 3.8 mph6.1 kmh 30.32 in1026.8 mb 0.00 in0.0 mm 0.00 in0.0 mm 0.01 in0.3 mm
09:30 AM 58.1°F14.5°C 50.6°F10.3°C 76% 2.5 mph E4.0 kmh E 3.8 mph6.1 kmh 30.32 in1026.8 mb 0.00 in0.0 mm 0.00 in0.0 mm 0.01 in0.3 mm
09:45 AM 59.2°F15.1°C 51.3°F10.7°C 75% 2.1 mph SSW3.4 kmh SSW 3.1 mph5.0 kmh 30.32 in1026.8 mb 0.00 in0.0 mm 0.00 in0.0 mm 0.01 in0.3 mm
10:00 AM 59.2°F15.1°C 50.9°F10.5°C 74% 2.1 mph S3.4 kmh S 3.8 mph6.1 kmh 30.32 in1026.8 mb 0.00 in0.0 mm 0.00 in0.0 mm 0.01 in0.3 mm
10:15 AM 58.8°F14.9°C 50.9°F10.5°C 75% 2.0 mph NNE3.2 kmh NNE 3.1 mph5.0 kmh 30.33 in1027.1 mb 0.00 in0.0 mm 0.00 in0.0 mm 0.01 in0.3 mm
10:30 AM 58.8°F14.9°C 50.6°F10.3°C 74% 2.4 mph S3.9 kmh S 3.8 mph6.1 kmh 30.33 in1027.1 mb 0.00 in0.0 mm 0.00 in0.0 mm 0.01 in0.3 mm
10:45 AM 59.2°F15.1°C 50.2°F10.1°C 72% 2.2 mph NW3.5 kmh NW 3.8 mph6.1 kmh 30.33 in1027.1 mb 0.00 in0.0 mm 0.00 in0.0 mm 0.01 in0.3 mm
11:00 AM 59.0°F15.0°C 50.0°F10.0°C 72% 2.9 mph NNE4.7 kmh NNE 4.5 mph7.2 kmh 30.34 in1027.4 mb 0.00 in0.0 mm 0.00 in0.0 mm 0.01 in0.3 mm
11:15 AM 58.6°F14.8°C 49.7°F9.8°C 72% 2.4 mph NW3.9 kmh NW 3.8 mph6.1 kmh 30.33 in1027.1 mb 0.00 in0.0 mm 0.00 in0.0 mm 0.01 in0.3 mm
11:30 AM 58.5°F14.7°C 50.2°F10.1°C 74% 1.7 mph NW2.7 kmh NW 2.2 mph3.5 kmh 30.34 in1027.4 mb 0.00 in0.0 mm 0.00 in0.0 mm 0.01 in0.3 mm
11:45 AM 59.0°F15.0°C 50.0°F10.0°C 72% 2.5 mph SSW4.0 kmh SSW 5.4 mph8.7 kmh 30.34 in1027.4 mb 0.00 in0.0 mm 0.00 in0.0 mm 0.01 in0.3 mm
12:00 PM 59.0°F15.0°C 50.0°F10.0°C 72% 2.7 mph SE4.3 kmh SE 3.8 mph6.1 kmh 30.34 in1027.4 mb 0.00 in0.0 mm 0.00 in0.0 mm 0.01 in0.3 mm
12:15 PM 61.0°F16.1°C 50.0°F10.0°C 67% 3.2 mph SE5.1 kmh SE 5.4 mph8.7 kmh 30.34 in1027.4 mb 0.00 in0.0 mm 0.00 in0.0 mm 0.01 in0.3 mm
12:30 PM 62.8°F17.1°C 48.7°F9.3°C 60% 2.7 mph SSW4.3 kmh SSW 3.8 mph6.1 kmh 30.33 in1027.1 mb 0.00 in0.0 mm 0.00 in0.0 mm 0.01 in0.3 mm
12:45 PM 63.7°F17.6°C 50.0°F10.0°C 61% 1.7 mph SW2.7 kmh SW 4.5 mph7.2 kmh 30.34 in1027.4 mb 0.00 in0.0 mm 0.00 in0.0 mm 0.01 in0.3 mm
01:00 PM 63.0°F17.2°C 48.9°F9.4°C 60% 2.3 mph S3.7 kmh S 3.8 mph6.1 kmh 30.33 in1027.1 mb 0.00 in0.0 mm 0.00 in0.0 mm 0.01 in0.3 mm
01:15 PM 61.3°F16.3°C 48.2°F9.0°C 62% 2.1 mph SW3.4 kmh SW 3.1 mph5.0 kmh 30.33 in1027.1 mb 0.00 in0.0 mm 0.00 in0.0 mm 0.01 in0.3 mm
01:30 PM 60.3°F15.7°C 48.5°F9.2°C 65% 2.2 mph W3.5 kmh W 3.8 mph6.1 kmh 30.34 in1027.4 mb 0.00 in0.0 mm 0.00 in0.0 mm 0.01 in0.3 mm
01:45 PM 60.3°F15.7°C 48.5°F9.2°C 65% 1.9 mph NW3.1 kmh NW 3.8 mph6.1 kmh 30.34 in1027.4 mb 0.00 in0.0 mm 0.00 in0.0 mm 0.01 in0.3 mm
02:00 PM 60.4°F15.8°C 48.6°F9.2°C 65% 1.7 mph W2.7 kmh W 2.2 mph3.5 kmh 30.34 in1027.4 mb 0.00 in0.0 mm 0.00 in0.0 mm 0.01 in0.3 mm
02:15 PM 59.5°F15.3°C 48.2°F9.0°C 66% 2.3 mph S3.7 kmh S 4.5 mph7.2 kmh 30.35 in1027.8 mb 0.00 in0.0 mm 0.00 in0.0 mm 0.01 in0.3 mm
02:30 PM 59.7°F15.4°C 49.2°F9.6°C 68% 1.6 mph NNW2.6 kmh NNW 4.5 mph7.2 kmh 30.35 in1027.8 mb 0.00 in0.0 mm 0.00 in0.0 mm 0.01 in0.3 mm
02:45 PM 59.5°F15.3°C 49.0°F9.4°C 68% 0.9 mph WSW1.4 kmh WSW 2.2 mph3.5 kmh 30.35 in1027.8 mb 0.00 in0.0 mm 0.00 in0.0 mm 0.01 in0.3 mm
03:00 PM 59.2°F15.1°C 47.8°F8.8°C 66% 1.7 mph S2.7 kmh S 3.1 mph5.0 kmh 30.35 in1027.8 mb 0.00 in0.0 mm 0.00 in0.0 mm 0.01 in0.3 mm
03:15 PM 59.7°F15.4°C 48.4°F9.1°C 66% 1.3 mph NW2.1 kmh NW 3.1 mph5.0 kmh 30.35 in1027.8 mb 0.00 in0.0 mm 0.00 in0.0 mm 0.01 in0.3 mm
03:30 PM 59.7°F15.4°C 47.9°F8.8°C 65% 1.6 mph SSW2.6 kmh SSW 2.2 mph3.5 kmh 30.36 in1028.1 mb 0.00 in0.0 mm 0.00 in0.0 mm 0.01 in0.3 mm
03:45 PM 59.4°F15.2°C 48.4°F9.1°C 67% 0.9 mph SW1.4 kmh SW 2.2 mph3.5 kmh 30.35 in1027.8 mb 0.00 in0.0 mm 0.00 in0.0 mm 0.01 in0.3 mm
04:00 PM 58.5°F14.7°C 48.7°F9.3°C 70% 1.0 mph NNW1.6 kmh NNW 2.2 mph3.5 kmh 30.35 in1027.8 mb 0.00 in0.0 mm 0.00 in0.0 mm 0.01 in0.3 mm
04:15 PM 58.3°F14.6°C 48.9°F9.4°C 71% 1.7 mph NW2.7 kmh NW 2.2 mph3.5 kmh 30.35 in1027.8 mb 0.00 in0.0 mm 0.00 in0.0 mm 0.01 in0.3 mm
04:30 PM 58.5°F14.7°C 49.1°F9.5°C 71% 1.4 mph W2.3 kmh W 3.1 mph5.0 kmh 30.35 in1027.8 mb 0.00 in0.0 mm 0.00 in0.0 mm 0.01 in0.3 mm
04:45 PM 58.6°F14.8°C 49.3°F9.6°C 71% 1.0 mph SSW1.6 kmh SSW 2.2 mph3.5 kmh 30.36 in1028.1 mb 0.00 in0.0 mm 0.00 in0.0 mm 0.01 in0.3 mm
05:00 PM 59.0°F15.0°C 49.2°F9.6°C 70% 1.1 mph WSW1.8 kmh WSW 1.6 mph2.6 kmh 30.35 in1027.8 mb 0.00 in0.0 mm 0.00 in0.0 mm 0.01 in0.3 mm
05:15 PM 58.8°F14.9°C 49.4°F9.7°C 71% 1.2 mph S1.9 kmh S 3.1 mph5.0 kmh 30.35 in1027.8 mb 0.00 in0.0 mm 0.00 in0.0 mm 0.01 in0.3 mm
05:30 PM 58.8°F14.9°C 49.1°F9.5°C 70% 2.1 mph SW3.4 kmh SW 5.4 mph8.7 kmh 30.35 in1027.8 mb 0.00 in0.0 mm 0.00 in0.0 mm 0.01 in0.3 mm
05:45 PM 58.6°F14.8°C 49.3°F9.6°C 71% 1.2 mph NW1.9 kmh NW 3.1 mph5.0 kmh 30.35 in1027.8 mb 0.00 in0.0 mm 0.00 in0.0 mm 0.01 in0.3 mm
06:00 PM 58.6°F14.8°C 49.3°F9.6°C 71% 0.9 mph WSW1.4 kmh WSW 2.2 mph3.5 kmh 30.35 in1027.8 mb 0.00 in0.0 mm 0.00 in0.0 mm 0.01 in0.3 mm
06:15 PM 57.9°F14.4°C 48.6°F9.2°C 71% 0.7 mph E1.1 kmh E 1.6 mph2.6 kmh 30.36 in1028.1 mb 0.00 in0.0 mm 0.00 in0.0 mm 0.01 in0.3 mm
06:30 PM 57.7°F14.3°C 48.0°F8.9°C 70% 1.3 mph SW2.1 kmh SW 1.6 mph2.6 kmh 30.36 in1028.1 mb 0.00 in0.0 mm 0.00 in0.0 mm 0.01 in0.3 mm
06:45 PM 57.2°F14.0°C 47.9°F8.8°C 71% 0.7 mph NW1.1 kmh NW 1.6 mph2.6 kmh 30.36 in1028.1 mb 0.00 in0.0 mm 0.00 in0.0 mm 0.01 in0.3 mm
07:00 PM 56.5°F13.6°C 48.3°F9.1°C 74% 1.0 mph NE1.6 kmh NE 2.2 mph3.5 kmh 30.36 in1028.1 mb 0.00 in0.0 mm 0.00 in0.0 mm 0.01 in0.3 mm
07:15 PM 55.6°F13.1°C 47.8°F8.8°C 75% 0.8 mph SW1.3 kmh SW 3.1 mph5.0 kmh 30.37 in1028.4 mb 0.00 in0.0 mm 0.00 in0.0 mm 0.01 in0.3 mm
07:30 PM 55.2°F12.9°C 47.8°F8.8°C 76% 1.3 mph WSW2.1 kmh WSW 2.2 mph3.5 kmh 30.38 in1028.8 mb 0.00 in0.0 mm 0.00 in0.0 mm 0.01 in0.3 mm
07:45 PM 54.7°F12.6°C 48.0°F8.9°C 78% 1.0 mph W1.6 kmh W 2.2 mph3.5 kmh 30.37 in1028.4 mb 0.00 in0.0 mm 0.00 in0.0 mm 0.01 in0.3 mm
08:00 PM 54.3°F12.4°C 48.0°F8.9°C 79% 0.5 mph NW0.8 kmh NW 1.6 mph2.6 kmh 30.38 in1028.8 mb 0.00 in0.0 mm 0.00 in0.0 mm 0.01 in0.3 mm
08:15 PM 53.8°F12.1°C 48.1°F8.9°C 81% 1.5 mph WSW2.4 kmh WSW 3.1 mph5.0 kmh 30.39 in1029.1 mb 0.00 in0.0 mm 0.00 in0.0 mm 0.01 in0.3 mm
08:30 PM 53.4°F11.9°C 48.1°F8.9°C 82% 0.9 mph WSW1.4 kmh WSW 1.6 mph2.6 kmh 30.39 in1029.1 mb 0.00 in0.0 mm 0.00 in0.0 mm 0.01 in0.3 mm
08:45 PM 52.9°F11.6°C 48.2°F9.0°C 84% 0.7 mph NW1.1 kmh NW 1.6 mph2.6 kmh 30.39 in1029.1 mb 0.00 in0.0 mm 0.00 in0.0 mm 0.01 in0.3 mm
09:00 PM 52.5°F11.4°C 48.5°F9.2°C 86% 1.0 mph S1.6 kmh S 3.1 mph5.0 kmh 30.39 in1029.1 mb 0.00 in0.0 mm 0.00 in0.0 mm 0.01 in0.3 mm
09:15 PM 52.3°F11.3°C 49.2°F9.6°C 89% 0.2 mph NW0.3 kmh NW 0.7 mph1.1 kmh 30.39 in1029.1 mb 0.00 in0.0 mm 0.00 in0.0 mm 0.01 in0.3 mm
09:30 PM 52.0°F11.1°C 49.1°F9.5°C 90% 0.6 mph N1.0 kmh N 2.2 mph3.5 kmh 30.39 in1029.1 mb 0.00 in0.0 mm 0.00 in0.0 mm 0.01 in0.3 mm
09:45 PM 51.6°F10.9°C 49.4°F9.7°C 92% 0.5 mph NW0.8 kmh NW 2.0 mph3.2 kmh 30.77 in1042.0 mb 0.00 in0.0 mm 0.00 in0.0 mm 0.01 in0.3 mm
10:00 PM 51.4°F10.8°C 49.2°F9.6°C 92% 0.2 mph E0.3 kmh E 0.7 mph1.1 kmh 30.77 in1042.0 mb 0.00 in0.0 mm 0.00 in0.0 mm 0.01 in0.3 mm
10:15 PM 51.4°F10.8°C 49.5°F9.7°C 93% 0.9 mph N1.4 kmh N 2.2 mph3.5 kmh 30.78 in1042.3 mb 0.00 in0.0 mm 0.00 in0.0 mm 0.01 in0.3 mm
10:16 PM 51.4°F10.8°C 49.5°F9.7°C 93% 0.7 mph NE1.1 kmh NE 2.2 mph3.5 kmh 30.77 in1042.0 mb 0.00 in0.0 mm 0.00 in0.0 mm 0.01 in0.3 mm
10:30 PM 51.3°F10.7°C 49.3°F9.6°C 93% 0.8 mph SE1.3 kmh SE 2.2 mph3.5 kmh 30.78 in1042.3 mb 0.00 in0.0 mm 0.00 in0.0 mm 0.01 in0.3 mm
10:31 PM 51.3°F10.7°C 49.3°F9.6°C 93% 0.8 mph SE1.3 kmh SE 2.2 mph3.5 kmh 30.78 in1042.3 mb 0.00 in0.0 mm 0.00 in0.0 mm 0.01 in0.3 mm
10:45 PM 51.1°F10.6°C 49.1°F9.5°C 93% 1.0 mph SE1.6 kmh SE 2.2 mph3.5 kmh 30.78 in1042.3 mb 0.00 in0.0 mm 0.00 in0.0 mm 0.01 in0.3 mm
11:00 PM 50.7°F10.4°C 48.8°F9.3°C 93% 0.1 mph NE0.2 kmh NE 0.7 mph1.1 kmh 30.78 in1042.3 mb 0.00 in0.0 mm 0.00 in0.0 mm 0.01 in0.3 mm
11:01 PM 50.7°F10.4°C 48.8°F9.3°C 93% Calm Calm -- 30.77 in1042.0 mb 0.00 in0.0 mm 0.00 in0.0 mm 0.01 in0.3 mm
11:15 PM 50.5°F10.3°C 48.6°F9.2°C 93% 0.4 mph NW0.6 kmh NW 1.6 mph2.6 kmh 30.78 in1042.3 mb 0.00 in0.0 mm 0.00 in0.0 mm 0.01 in0.3 mm
11:30 PM 50.4°F10.2°C 48.4°F9.1°C 93% 0.1 mph W0.2 kmh W 0.7 mph1.1 kmh 30.78 in1042.3 mb 0.00 in0.0 mm 0.00 in0.0 mm 0.01 in0.3 mm
11:45 PM 50.2°F10.1°C 48.2°F9.0°C 93% 0.3 mph W0.5 kmh W 1.6 mph2.6 kmh 30.78 in1042.3 mb 0.00 in0.0 mm 0.00 in0.0 mm 0.01 in0.3 mm